Time;durP1;ratioP1;P1;durP2;ratioP2;P2;SDS_P1;SDS_P2;PMS_P1;PMS_P2;Temp;Humidity;BMP_temperature;BMP_pressure;BME280_temperature;BME280_humidity;BME280_pressure;Samples;Min_cycle;Max_cycle;Signal;HPM_P1;HPM_P2
2021/06/14 00:00:45;;;;;;;14.35;4.55;;;;;;;;;;5049611;28;20286;-65
2021/06/14 00:03:10;;;;;;;8.88;4.10;;;;;;;;;;5049614;28;20056;-65
2021/06/14 00:05:42;;;;;;;7.97;3.92;;;;;;;;;;5040335;28;20064;-65
2021/06/14 00:08:09;;;;;;;9.50;4.20;;;;;;;;;;5045498;28;20457;-65
2021/06/14 00:10:35;;;;;;;12.60;4.35;;;;;;;;;;5049378;28;20515;-66
2021/06/14 00:13:01;;;;;;;8.27;3.67;;;;;;;;;;5048311;28;20029;-66
2021/06/14 00:15:26;;;;;;;9.38;4.20;;;;;;;;;;5049394;28;20035;-66
2021/06/14 00:17:52;;;;;;;9.20;4.28;;;;;;;;;;5048390;28;20017;-66
2021/06/14 00:20:21;;;;;;;8.90;3.92;;;;;;;;;;5053466;28;20037;-65
2021/06/14 00:22:46;;;;;;;8.95;3.85;;;;;;;;;;5045934;28;20027;-66
2021/06/14 00:25:12;;;;;;;6.70;3.85;;;;;;;;;;5048876;28;20454;-65
2021/06/14 00:27:37;;;;;;;12.95;4.30;;;;;;;;;;5053334;28;20096;-65
2021/06/14 00:30:03;;;;;;;9.20;4.13;;;;;;;;;;5053332;28;20606;-65
2021/06/14 00:32:29;;;;;;;9.30;4.05;;;;;;;;;;5044526;28;20028;-65
2021/06/14 00:34:54;;;;;;;11.93;4.13;;;;;;;;;;5053190;28;20060;-66
2021/06/14 00:37:19;;;;;;;9.02;3.88;;;;;;;;;;5035055;28;20761;-66
2021/06/14 00:39:45;;;;;;;15.73;4.95;;;;;;;;;;5053260;28;20032;-65
2021/06/14 00:42:10;;;;;;;8.88;3.92;;;;;;;;;;5035490;28;20032;-65
2021/06/14 00:44:35;;;;;;;8.13;4.20;;;;;;;;;;5053038;28;20037;-66
2021/06/14 00:47:01;;;;;;;8.33;3.93;;;;;;;;;;5052828;28;20891;-66
2021/06/14 00:49:26;;;;;;;6.53;3.80;;;;;;;;;;5053337;28;20268;-65
2021/06/14 00:51:51;;;;;;;11.17;3.90;;;;;;;;;;5053414;28;20339;-64
2021/06/14 00:54:16;;;;;;;11.30;4.35;;;;;;;;;;5052737;28;20279;-65
2021/06/14 00:56:42;;;;;;;9.45;3.88;;;;;;;;;;5051157;28;20017;-65
2021/06/14 00:59:07;;;;;;;9.80;4.28;;;;;;;;;;5052855;28;20017;-66
2021/06/14 01:01:32;;;;;;;7.78;3.75;;;;;;;;;;5052762;28;20422;-65
2021/06/14 01:03:57;;;;;;;10.93;3.63;;;;;;;;;;5052970;28;20475;-65
2021/06/14 01:06:23;;;;;;;8.98;5.47;;;;;;;;;;5052558;28;20471;-65
2021/06/14 01:08:49;;;;;;;11.25;3.60;;;;;;;;;;5052758;28;20494;-65
2021/06/14 01:11:46;;;;;;;11.05;3.92;;;;;;;;;;5048841;28;20021;-66
2021/06/14 01:14:26;;;;;;;8.35;3.33;;;;;;;;;;4996482;28;20488;-66
2021/06/14 01:17:13;;;;;;;9.33;3.57;;;;;;;;;;5052131;28;20538;-64
2021/06/14 01:19:57;;;;;;;7.22;3.65;;;;;;;;;;5051449;28;20017;-65
2021/06/14 01:22:41;;;;;;;8.90;4.20;;;;;;;;;;5038288;28;20029;-66
2021/06/14 01:25:24;;;;;;;9.65;4.25;;;;;;;;;;5052478;28;20096;-66
2021/06/14 01:27:52;;;;;;;11.60;4.55;;;;;;;;;;5050262;28;20099;-65
2021/06/14 01:30:19;;;;;;;9.30;5.03;;;;;;;;;;5052118;28;20029;-66
2021/06/14 01:32:46;;;;;;;9.90;4.20;;;;;;;;;;5052222;28;20041;-65
2021/06/14 01:35:12;;;;;;;8.30;3.78;;;;;;;;;;5051764;28;20052;-65
2021/06/14 01:37:44;;;;;;;8.48;4.10;;;;;;;;;;5050006;28;20052;-65
2021/06/14 01:40:10;;;;;;;9.05;4.15;;;;;;;;;;5043287;28;20434;-66
2021/06/14 01:42:35;;;;;;;8.30;3.47;;;;;;;;;;5032511;28;20067;-65
2021/06/14 01:45:01;;;;;;;10.23;3.63;;;;;;;;;;5049929;28;20041;-65
2021/06/14 01:47:26;;;;;;;11.35;3.67;;;;;;;;;;5051907;28;20052;-66
2021/06/14 01:49:52;;;;;;;6.13;3.58;;;;;;;;;;5051675;28;20103;-66
2021/06/14 01:52:17;;;;;;;9.40;3.90;;;;;;;;;;5042007;28;20025;-65
2021/06/14 01:54:43;;;;;;;6.95;3.55;;;;;;;;;;5051647;28;20031;-65
2021/06/14 01:57:08;;;;;;;8.93;4.45;;;;;;;;;;5052026;28;20103;-65
2021/06/14 01:59:36;;;;;;;9.65;4.05;;;;;;;;;;5051573;28;20475;-65
2021/06/14 02:02:03;;;;;;;9.77;3.95;;;;;;;;;;5051850;28;20052;-65
2021/06/14 02:04:28;;;;;;;9.25;4.07;;;;;;;;;;5051720;28;20356;-65
2021/06/14 02:06:54;;;;;;;12.18;4.13;;;;;;;;;;5049993;28;20051;-65
2021/06/14 02:09:21;;;;;;;15.57;4.43;;;;;;;;;;5043717;28;20039;-65
2021/06/14 02:11:48;;;;;;;7.78;3.40;;;;;;;;;;5052081;28;20028;-65
2021/06/14 02:14:18;;;;;;;15.75;4.35;;;;;;;;;;5051391;28;20056;-65
2021/06/14 02:16:43;;;;;;;11.10;4.38;;;;;;;;;;5052085;28;20674;-65
2021/06/14 02:19:09;;;;;;;13.35;3.72;;;;;;;;;;5051800;28;20416;-65
2021/06/14 02:21:34;;;;;;;10.25;4.63;;;;;;;;;;5050241;28;20020;-66
2021/06/14 02:23:59;;;;;;;9.90;4.45;;;;;;;;;;5045766;28;20044;-65
2021/06/14 02:26:25;;;;;;;7.78;3.83;;;;;;;;;;5050968;28;20024;-66
2021/06/14 02:28:50;;;;;;;10.13;4.18;;;;;;;;;;5051553;28;20028;-65
2021/06/14 02:31:16;;;;;;;11.67;4.03;;;;;;;;;;5051449;28;20360;-65
2021/06/14 02:33:42;;;;;;;9.73;4.95;;;;;;;;;;5050508;28;20287;-65
2021/06/14 02:36:07;;;;;;;8.95;4.03;;;;;;;;;;5051233;28;20066;-65
2021/06/14 02:38:33;;;;;;;8.90;4.13;;;;;;;;;;5050635;28;20098;-65
2021/06/14 02:40:59;;;;;;;9.98;4.15;;;;;;;;;;5051286;28;20182;-65
2021/06/14 02:43:24;;;;;;;7.47;3.90;;;;;;;;;;5034056;28;20043;-65
2021/06/14 02:45:50;;;;;;;9.93;4.13;;;;;;;;;;5033332;28;20047;-65
2021/06/14 02:48:19;;;;;;;7.60;3.72;;;;;;;;;;5032429;28;20445;-65
2021/06/14 02:50:45;;;;;;;8.60;3.88;;;;;;;;;;5050866;28;20095;-65
2021/06/14 02:53:11;;;;;;;10.90;3.85;;;;;;;;;;5033087;28;20487;-65
2021/06/14 02:55:43;;;;;;;9.65;4.60;;;;;;;;;;5032506;28;20017;-65
2021/06/14 02:58:09;;;;;;;15.45;4.90;;;;;;;;;;5050753;28;20031;-65
2021/06/14 03:00:34;;;;;;;9.88;4.30;;;;;;;;;;5049260;28;20021;-65
2021/06/14 03:03:00;;;;;;;7.93;3.78;;;;;;;;;;5050219;28;20502;-65
2021/06/14 03:05:26;;;;;;;13.93;4.20;;;;;;;;;;5050257;28;20029;-65
2021/06/14 03:07:51;;;;;;;10.93;4.30;;;;;;;;;;5050148;28;20033;-65
2021/06/14 03:10:17;;;;;;;7.40;3.78;;;;;;;;;;5043290;28;20029;-65
2021/06/14 03:12:42;;;;;;;9.45;4.28;;;;;;;;;;5055798;28;20511;-65
2021/06/14 03:15:08;;;;;;;15.65;4.10;;;;;;;;;;5052928;28;20339;-65
2021/06/14 03:17:34;;;;;;;7.38;3.95;;;;;;;;;;5048082;28;20025;-65
2021/06/14 03:19:59;;;;;;;11.88;5.07;;;;;;;;;;5050290;28;20104;-65
2021/06/14 03:22:25;;;;;;;10.00;4.63;;;;;;;;;;5050583;28;20119;-65
2021/06/14 03:24:50;;;;;;;10.32;4.60;;;;;;;;;;5050182;28;20028;-65
2021/06/14 03:27:16;;;;;;;10.67;4.00;;;;;;;;;;5049651;28;20383;-65
2021/06/14 03:29:43;;;;;;;14.98;4.88;;;;;;;;;;5049399;28;20274;-65
2021/06/14 03:32:09;;;;;;;11.43;5.35;;;;;;;;;;5050312;28;20108;-65
2021/06/14 03:34:35;;;;;;;12.25;4.00;;;;;;;;;;5049318;28;20116;-65
2021/06/14 03:37:01;;;;;;;15.63;4.65;;;;;;;;;;5050155;28;20036;-65
2021/06/14 03:39:27;;;;;;;9.05;3.80;;;;;;;;;;5019257;28;20384;-65
2021/06/14 03:41:52;;;;;;;15.02;4.95;;;;;;;;;;5046802;28;20013;-65
2021/06/14 03:44:19;;;;;;;12.88;4.22;;;;;;;;;;5046177;28;20025;-65
2021/06/14 03:46:46;;;;;;;10.20;3.83;;;;;;;;;;5036860;28;20048;-65
2021/06/14 03:49:11;;;;;;;9.55;3.83;;;;;;;;;;5050112;28;20105;-65
2021/06/14 03:51:36;;;;;;;9.40;4.47;;;;;;;;;;5049864;28;20065;-65
2021/06/14 03:54:02;;;;;;;13.88;4.60;;;;;;;;;;5049692;28;20021;-65
2021/06/14 03:56:28;;;;;;;11.32;4.72;;;;;;;;;;5048584;28;20114;-65
2021/06/14 03:58:53;;;;;;;9.65;5.35;;;;;;;;;;5037474;28;20022;-65
2021/06/14 04:01:19;;;;;;;14.35;4.18;;;;;;;;;;5046423;28;20075;-65
2021/06/14 04:03:51;;;;;;;15.90;4.38;;;;;;;;;;5049703;28;20498;-65
2021/06/14 04:06:17;;;;;;;12.10;4.78;;;;;;;;;;5049962;28;20021;-65
2021/06/14 04:08:42;;;;;;;9.50;4.07;;;;;;;;;;5049117;28;20032;-65
2021/06/14 04:11:07;;;;;;;12.10;4.53;;;;;;;;;;5049416;28;20252;-65
2021/06/14 04:13:32;;;;;;;18.85;6.18;;;;;;;;;;5048802;28;20267;-66
2021/06/14 04:15:57;;;;;;;8.23;3.97;;;;;;;;;;5048648;28;20025;-66
2021/06/14 04:18:22;;;;;;;12.75;4.65;;;;;;;;;;5049469;28;20292;-66
2021/06/14 04:20:48;;;;;;;9.90;3.90;;;;;;;;;;5049890;28;20060;-65
2021/06/14 04:23:13;;;;;;;12.40;4.32;;;;;;;;;;5048933;28;20256;-65
2021/06/14 04:25:38;;;;;;;11.32;4.45;;;;;;;;;;5049218;28;20037;-65
2021/06/14 04:28:06;;;;;;;10.93;5.23;;;;;;;;;;5041824;28;20383;-65
2021/06/14 04:30:32;;;;;;;9.40;3.70;;;;;;;;;;5047064;28;20358;-65
2021/06/14 04:32:57;;;;;;;9.30;4.57;;;;;;;;;;5046732;28;20406;-65
2021/06/14 04:35:22;;;;;;;14.97;3.70;;;;;;;;;;5047729;28;20048;-65
2021/06/14 04:37:47;;;;;;;8.37;4.50;;;;;;;;;;5047540;28;20271;-65
2021/06/14 04:40:12;;;;;;;11.17;5.13;;;;;;;;;;5047456;28;20271;-65
2021/06/14 04:42:37;;;;;;;10.02;4.40;;;;;;;;;;5045944;28;20765;-65
2021/06/14 04:45:03;;;;;;;15.07;4.20;;;;;;;;;;5046602;28;20017;-65
2021/06/14 04:47:28;;;;;;;10.60;4.72;;;;;;;;;;5045782;28;20025;-65
2021/06/14 04:49:53;;;;;;;13.10;4.80;;;;;;;;;;5049256;28;20029;-65
2021/06/14 04:52:19;;;;;;;9.00;3.90;;;;;;;;;;5048072;28;20298;-65
2021/06/14 04:57:47;;;;;;;13.70;4.60;;;;;;;;;;5041665;28;20622;-65
2021/06/14 05:00:12;;;;;;;11.10;3.90;;;;;;;;;;5049129;28;20025;-66
2021/06/14 05:02:37;;;;;;;13.15;3.63;;;;;;;;;;5049661;28;20359;-65
2021/06/14 05:05:03;;;;;;;9.73;3.20;;;;;;;;;;5048266;28;20021;-65
2021/06/14 05:07:29;;;;;;;8.52;3.63;;;;;;;;;;5050555;28;20346;-66
2021/06/14 05:09:56;;;;;;;7.83;3.43;;;;;;;;;;5044764;28;20479;-66
2021/06/14 05:12:21;;;;;;;24.40;3.88;;;;;;;;;;5048165;28;20312;-65
2021/06/14 05:14:46;;;;;;;9.70;3.45;;;;;;;;;;5047499;28;20469;-66
2021/06/14 05:17:11;;;;;;;7.53;3.60;;;;;;;;;;5035338;28;20506;-65
2021/06/14 05:19:36;;;;;;;9.70;3.47;;;;;;;;;;5038961;28;20036;-66
2021/06/14 05:22:04;;;;;;;9.93;3.77;;;;;;;;;;5045740;28;20404;-65
2021/06/14 05:24:29;;;;;;;10.30;3.78;;;;;;;;;;5048964;28;20337;-65
2021/06/14 05:26:54;;;;;;;27.15;5.28;;;;;;;;;;5041321;28;20479;-66
2021/06/14 05:29:20;;;;;;;11.70;3.77;;;;;;;;;;5043376;28;20024;-65
2021/06/14 05:31:45;;;;;;;12.60;3.50;;;;;;;;;;5050243;28;20633;-65
2021/06/14 05:34:10;;;;;;;9.23;3.17;;;;;;;;;;5041546;28;20072;-66
2021/06/14 05:36:35;;;;;;;14.10;4.20;;;;;;;;;;5055854;28;20259;-66
2021/06/14 05:39:01;;;;;;;10.17;3.20;;;;;;;;;;5034275;28;20495;-66
2021/06/14 05:41:27;;;;;;;6.72;3.42;;;;;;;;;;5050945;28;20251;-66
2021/06/14 05:43:52;;;;;;;7.67;2.90;;;;;;;;;;5050503;28;20025;-66
2021/06/14 05:46:17;;;;;;;12.88;3.10;;;;;;;;;;5032670;28;20256;-66
2021/06/14 05:48:42;;;;;;;11.70;3.27;;;;;;;;;;5043231;28;20301;-66
2021/06/14 05:51:07;;;;;;;8.45;3.42;;;;;;;;;;5036971;28;20260;-65
2021/06/14 05:53:33;;;;;;;7.10;2.63;;;;;;;;;;5047936;28;20036;-66
2021/06/14 05:55:58;;;;;;;10.60;3.37;;;;;;;;;;5046310;28;20284;-66
2021/06/14 05:58:23;;;;;;;8.70;3.20;;;;;;;;;;5048259;28;20654;-66
2021/06/14 06:00:48;;;;;;;12.43;2.60;;;;;;;;;;5056425;28;20029;-66
2021/06/14 06:03:13;;;;;;;5.60;2.80;;;;;;;;;;5055767;28;20313;-66
2021/06/14 06:05:39;;;;;;;11.65;2.40;;;;;;;;;;5051250;28;20610;-65
2021/06/14 06:08:04;;;;;;;6.80;2.60;;;;;;;;;;5051710;28;20068;-66
2021/06/14 06:10:29;;;;;;;9.63;3.15;;;;;;;;;;5046706;28;20037;-65
2021/06/14 06:12:54;;;;;;;13.60;2.83;;;;;;;;;;5043549;28;20029;-66
2021/06/14 06:15:20;;;;;;;8.85;2.60;;;;;;;;;;5049728;28;20025;-65
2021/06/14 06:17:46;;;;;;;10.15;3.03;;;;;;;;;;5094077;22;20045;-63
2021/06/14 06:20:12;;;;;;;9.57;1.83;;;;;;;;;;5071295;28;20332;-62
2021/06/14 06:22:38;;;;;;;7.28;2.97;;;;;;;;;;5070793;28;20028;-63
2021/06/14 06:25:07;;;;;;;5.22;1.88;;;;;;;;;;5066343;28;20283;-62
2021/06/14 06:27:33;;;;;;;9.30;2.17;;;;;;;;;;5068188;28;20028;-62
2021/06/14 06:29:58;;;;;;;3.83;2.42;;;;;;;;;;5069355;28;20393;-63
2021/06/14 06:32:23;;;;;;;4.30;1.98;;;;;;;;;;5071033;28;20470;-63
2021/06/14 06:34:48;;;;;;;6.95;2.20;;;;;;;;;;5071145;28;20091;-62
2021/06/14 06:37:14;;;;;;;8.88;2.22;;;;;;;;;;5071316;28;20016;-63
2021/06/14 06:39:39;;;;;;;4.57;2.03;;;;;;;;;;5065204;28;20074;-63
2021/06/14 06:42:04;;;;;;;6.60;1.97;;;;;;;;;;5070612;28;20262;-65
2021/06/14 06:44:30;;;;;;;11.50;2.83;;;;;;;;;;5070550;28;20778;-64
2021/06/14 06:46:55;;;;;;;5.50;2.63;;;;;;;;;;5070785;28;20013;-63
2021/06/14 06:49:20;;;;;;;11.47;2.80;;;;;;;;;;5070130;28;20031;-63
2021/06/14 06:51:46;;;;;;;10.57;3.50;;;;;;;;;;5070704;28;20363;-62
2021/06/14 06:54:11;;;;;;;6.80;2.72;;;;;;;;;;5070907;28;20024;-62
2021/06/14 06:56:47;;;;;;;38.70;5.07;;;;;;;;;;5074411;28;20039;-62
2021/06/14 06:59:12;;;;;;;26.90;5.10;;;;;;;;;;5069987;28;20025;-62
2021/06/14 07:01:38;;;;;;;18.10;2.63;;;;;;;;;;5070849;28;20027;-62
2021/06/14 07:04:04;;;;;;;29.48;4.22;;;;;;;;;;5071007;28;20016;-62
2021/06/14 07:06:29;;;;;;;5.03;2.28;;;;;;;;;;5069848;28;20048;-62
2021/06/14 07:08:56;;;;;;;10.25;2.90;;;;;;;;;;5070298;28;20430;-62
2021/06/14 07:11:21;;;;;;;5.18;2.08;;;;;;;;;;5070325;28;20094;-62
2021/06/14 07:13:46;;;;;;;2.70;1.33;;;;;;;;;;5070425;28;20447;-62
2021/06/14 07:16:11;;;;;;;7.77;2.17;;;;;;;;;;5069064;28;20024;-62
2021/06/14 07:18:36;;;;;;;7.60;2.80;;;;;;;;;;5070630;28;20353;-62
2021/06/14 07:21:02;;;;;;;10.20;3.00;;;;;;;;;;5070385;28;20644;-62
2021/06/14 07:23:27;;;;;;;6.47;1.85;;;;;;;;;;5070090;28;20293;-62
2021/06/14 07:25:52;;;;;;;6.38;3.00;;;;;;;;;;5069805;28;20501;-62
2021/06/14 07:28:17;;;;;;;48.70;7.90;;;;;;;;;;5078479;28;20060;-62
2021/06/14 07:30:42;;;;;;;12.80;3.40;;;;;;;;;;5068194;28;20755;-62
2021/06/14 07:33:08;;;;;;;19.53;3.17;;;;;;;;;;5069811;28;20320;-62
2021/06/14 07:35:35;;;;;;;9.73;2.45;;;;;;;;;;5069869;28;20312;-62
2021/06/14 07:38:00;;;;;;;87.50;16.33;;;;;;;;;;5065427;28;20027;-62
2021/06/14 07:40:27;;;;;;;5.80;2.42;;;;;;;;;;5070020;28;20091;-62
2021/06/14 07:42:52;;;;;;;12.82;2.70;;;;;;;;;;5069620;28;20048;-62
2021/06/14 07:45:23;;;;;;;7.93;3.30;;;;;;;;;;5068892;28;20498;-63
2021/06/14 07:47:48;;;;;;;5.47;2.35;;;;;;;;;;5066864;28;20349;-62
2021/06/14 07:50:13;;;;;;;6.90;2.65;;;;;;;;;;5068906;28;20100;-63
2021/06/14 07:52:38;;;;;;;14.80;3.22;;;;;;;;;;5069386;28;20106;-62
2021/06/14 07:55:04;;;;;;;8.03;2.83;;;;;;;;;;5069402;28;20055;-63
2021/06/14 07:57:29;;;;;;;10.35;2.97;;;;;;;;;;5076586;28;20016;-63
2021/06/14 07:59:54;;;;;;;6.13;2.60;;;;;;;;;;5081161;28;20433;-63
2021/06/14 08:02:20;;;;;;;7.72;2.65;;;;;;;;;;5037045;28;20039;-62
2021/06/14 08:04:45;;;;;;;10.98;2.95;;;;;;;;;;5069765;28;20103;-63
2021/06/14 08:07:10;;;;;;;4.43;1.80;;;;;;;;;;5068947;28;20024;-62
2021/06/14 08:09:35;;;;;;;5.10;1.97;;;;;;;;;;5070049;28;20046;-62
2021/06/14 08:12:02;;;;;;;7.22;2.65;;;;;;;;;;5069955;28;20263;-62
2021/06/14 08:14:27;;;;;;;6.75;2.65;;;;;;;;;;5069002;28;20028;-62
2021/06/14 08:16:52;;;;;;;9.43;2.88;;;;;;;;;;5069314;28;20388;-62
2021/06/14 08:25:05;;;;;;;6.53;1.80;;;;;;;;;;5054317;28;20035;-62
2021/06/14 08:27:37;;;;;;;13.20;3.03;;;;;;;;;;5066686;28;20090;-65
2021/06/14 08:30:04;;;;;;;3.83;1.70;;;;;;;;;;5069436;28;20024;-65
2021/06/14 08:32:29;;;;;;;6.93;3.00;;;;;;;;;;5069250;28;20032;-64
2021/06/14 08:34:54;;;;;;;6.10;2.28;;;;;;;;;;5068665;28;20458;-64
2021/06/14 08:37:20;;;;;;;4.78;2.35;;;;;;;;;;5070240;28;20020;-64
2021/06/14 08:39:45;;;;;;;4.87;2.43;;;;;;;;;;5073410;28;20049;-64
2021/06/14 08:42:10;;;;;;;6.30;2.57;;;;;;;;;;5073179;28;20259;-64
2021/06/14 08:44:35;;;;;;;4.43;2.47;;;;;;;;;;5071573;28;20274;-62
2021/06/14 08:47:03;;;;;;;3.63;2.13;;;;;;;;;;5073386;28;20624;-62
2021/06/14 08:49:28;;;;;;;2.72;1.50;;;;;;;;;;5073348;28;20036;-62
2021/06/14 08:51:54;;;;;;;4.00;1.85;;;;;;;;;;5072713;28;20035;-62
2021/06/14 08:54:19;;;;;;;20.65;2.53;;;;;;;;;;5071237;28;20038;-62
2021/06/14 08:56:44;;;;;;;11.40;3.17;;;;;;;;;;5068916;28;20021;-63
2021/06/14 08:59:09;;;;;;;4.87;2.40;;;;;;;;;;5073128;28;20039;-63
2021/06/14 09:01:35;;;;;;;14.52;3.58;;;;;;;;;;5072384;28;20338;-63
2021/06/14 09:04:00;;;;;;;11.60;2.50;;;;;;;;;;5073286;28;20055;-63
2021/06/14 09:06:26;;;;;;;9.27;3.20;;;;;;;;;;5072273;28;20039;-63
2021/06/14 09:08:55;;;;;;;4.47;1.80;;;;;;;;;;5072645;28;20263;-63
2021/06/14 09:11:20;;;;;;;5.78;2.38;;;;;;;;;;5060200;28;20013;-63
2021/06/14 09:13:45;;;;;;;6.80;1.77;;;;;;;;;;5071609;28;20078;-63
2021/06/14 09:16:16;;;;;;;4.50;2.60;;;;;;;;;;5071868;28;20278;-63
2021/06/14 09:18:43;;;;;;;10.82;3.28;;;;;;;;;;5054364;28;20298;-62
2021/06/14 09:21:15;;;;;;;8.02;1.52;;;;;;;;;;5056917;28;20032;-63
2021/06/14 09:23:50;;;;;;;12.38;3.38;;;;;;;;;;5071910;28;20017;-63
2021/06/14 09:26:29;;;;;;;11.60;2.47;;;;;;;;;;5070977;28;20024;-63
2021/06/14 09:28:57;;;;;;;4.47;1.83;;;;;;;;;;5073172;28;20541;-63
2021/06/14 09:31:23;;;;;;;5.75;2.80;;;;;;;;;;5072214;28;20024;-63
2021/06/14 09:33:48;;;;;;;3.65;2.03;;;;;;;;;;5072285;28;20083;-63
2021/06/14 09:36:14;;;;;;;12.25;3.42;;;;;;;;;;5069469;28;20025;-63
2021/06/14 09:38:39;;;;;;;5.68;2.80;;;;;;;;;;5071845;28;20048;-63
2021/06/14 09:41:09;;;;;;;13.60;3.25;;;;;;;;;;5071673;28;20024;-63
2021/06/14 09:43:37;;;;;;;7.63;3.20;;;;;;;;;;5071636;28;20024;-63
2021/06/14 09:46:04;;;;;;;12.20;3.15;;;;;;;;;;5069283;28;20020;-63
2021/06/14 09:48:31;;;;;;;9.25;3.63;;;;;;;;;;5071382;28;20048;-63
2021/06/14 09:50:57;;;;;;;7.00;2.33;;;;;;;;;;5071640;28;20016;-63
2021/06/14 09:53:26;;;;;;;5.95;2.40;;;;;;;;;;5071661;28;20041;-63
2021/06/14 09:55:52;;;;;;;8.40;3.40;;;;;;;;;;5071323;28;20031;-63
2021/06/14 09:58:17;;;;;;;11.80;3.47;;;;;;;;;;5071457;28;20017;-63
2021/06/14 10:00:50;;;;;;;10.77;3.17;;;;;;;;;;5071958;28;20474;-63
2021/06/14 10:03:15;;;;;;;6.20;2.63;;;;;;;;;;5070219;28;20022;-63
2021/06/14 10:05:44;;;;;;;10.50;2.33;;;;;;;;;;5060137;28;20024;-63
2021/06/14 10:08:10;;;;;;;4.23;1.77;;;;;;;;;;5059968;28;20256;-63
2021/06/14 10:10:38;;;;;;;5.57;2.40;;;;;;;;;;5066209;28;20085;-63
2021/06/14 10:13:04;;;;;;;13.77;3.35;;;;;;;;;;5059482;28;20027;-63
2021/06/14 10:15:33;;;;;;;7.90;2.67;;;;;;;;;;5071100;28;20115;-63
2021/06/14 10:17:59;;;;;;;7.40;2.53;;;;;;;;;;5070927;28;20398;-63
2021/06/14 10:20:26;;;;;;;13.43;3.17;;;;;;;;;;5065376;28;20025;-63
2021/06/14 10:22:52;;;;;;;7.78;2.17;;;;;;;;;;5065847;28;20036;-63
2021/06/14 10:25:18;;;;;;;9.82;3.38;;;;;;;;;;5071140;28;20437;-63
2021/06/14 10:27:44;;;;;;;12.35;3.05;;;;;;;;;;5070497;28;20070;-63
2021/06/14 10:30:13;;;;;;;5.28;2.13;;;;;;;;;;5068810;28;20104;-63
2021/06/14 10:32:39;;;;;;;4.22;2.15;;;;;;;;;;5071529;28;20024;-63
2021/06/14 10:35:06;;;;;;;4.35;1.88;;;;;;;;;;5071143;28;20025;-63
2021/06/14 10:37:33;;;;;;;5.57;2.30;;;;;;;;;;5069804;28;20021;-63
2021/06/14 10:39:58;;;;;;;11.25;3.28;;;;;;;;;;5070129;28;20020;-63
2021/06/14 10:42:24;;;;;;;8.70;2.92;;;;;;;;;;5068162;28;20025;-63
2021/06/14 10:44:49;;;;;;;4.00;2.10;;;;;;;;;;5070454;28;20474;-63
2021/06/14 10:47:15;;;;;;;8.27;2.30;;;;;;;;;;5070308;28;20035;-63
2021/06/14 10:49:40;;;;;;;14.73;2.83;;;;;;;;;;5061811;28;20266;-63
2021/06/14 10:52:06;;;;;;;10.75;3.00;;;;;;;;;;5071020;28;20103;-63
2021/06/14 10:54:40;;;;;;;9.68;2.88;;;;;;;;;;5069222;28;20024;-65
2021/06/14 10:57:09;;;;;;;10.73;2.53;;;;;;;;;;5058008;28;20471;-63
2021/06/14 10:59:39;;;;;;;12.73;2.72;;;;;;;;;;5054817;28;20414;-63
2021/06/14 11:02:08;;;;;;;9.60;2.95;;;;;;;;;;5070554;28;20107;-63
2021/06/14 11:04:33;;;;;;;7.03;2.75;;;;;;;;;;5069958;28;20021;-62
2021/06/14 11:06:59;;;;;;;6.13;2.63;;;;;;;;;;5069617;28;20033;-63
2021/06/14 11:09:35;;;;;;;6.88;3.03;;;;;;;;;;5064909;28;20029;-62
2021/06/14 11:12:00;;;;;;;9.30;2.88;;;;;;;;;;5066625;28;20024;-63
2021/06/14 11:14:29;;;;;;;4.10;2.30;;;;;;;;;;5059287;28;20410;-63
2021/06/14 11:16:57;;;;;;;8.88;2.47;;;;;;;;;;5070473;28;20679;-63
2021/06/14 11:19:32;;;;;;;6.05;2.30;;;;;;;;;;5070999;28;20446;-63
2021/06/14 11:21:57;;;;;;;7.88;2.47;;;;;;;;;;5070317;28;20537;-63
2021/06/14 11:24:32;;;;;;;5.67;2.50;;;;;;;;;;5069996;28;20082;-63
2021/06/14 11:26:57;;;;;;;6.18;2.58;;;;;;;;;;5070127;28;20263;-63
2021/06/14 11:29:22;;;;;;;5.35;1.73;;;;;;;;;;5070222;28;20020;-63
2021/06/14 11:31:55;;;;;;;8.90;1.70;;;;;;;;;;5070364;28;20024;-65
2021/06/14 11:34:20;;;;;;;4.88;1.75;;;;;;;;;;5063261;28;20781;-63
2021/06/14 11:36:51;;;;;;;6.55;3.03;;;;;;;;;;5070240;28;20024;-63
2021/06/14 11:39:17;;;;;;;3.67;2.00;;;;;;;;;;5070513;28;20020;-62
2021/06/14 11:41:42;;;;;;;4.67;1.57;;;;;;;;;;5070133;28;20147;-63
2021/06/14 11:44:27;;;;;;;6.33;2.30;;;;;;;;;;5069465;28;20265;-63
2021/06/14 11:46:54;;;;;;;4.15;1.63;;;;;;;;;;5064770;28;20466;-63
2021/06/14 11:49:28;;;;;;;4.15;2.03;;;;;;;;;;5070186;28;20051;-63
2021/06/14 11:51:53;;;;;;;5.57;1.63;;;;;;;;;;5067579;28;20032;-63
2021/06/14 11:54:19;;;;;;;4.65;1.90;;;;;;;;;;5050398;28;20013;-63
2021/06/14 11:56:53;;;;;;;6.97;2.10;;;;;;;;;;5057186;28;20032;-63
2021/06/14 11:59:27;;;;;;;5.28;1.83;;;;;;;;;;5067227;28;20493;-62
2021/06/14 12:01:52;;;;;;;8.02;2.10;;;;;;;;;;5074566;28;20033;-63
2021/06/14 12:04:21;;;;;;;7.23;2.47;;;;;;;;;;5062578;28;20375;-63
2021/06/14 12:06:47;;;;;;;6.95;2.30;;;;;;;;;;5069777;28;20039;-63
2021/06/14 12:09:13;;;;;;;8.32;2.35;;;;;;;;;;5065717;28;20367;-63
2021/06/14 12:11:38;;;;;;;4.65;2.42;;;;;;;;;;5058596;28;20049;-63
2021/06/14 12:14:14;;;;;;;7.93;2.60;;;;;;;;;;5051201;28;20052;-63
2021/06/14 12:16:40;;;;;;;7.15;3.10;;;;;;;;;;5056558;28;20017;-63
2021/06/14 12:19:05;;;;;;;7.13;2.25;;;;;;;;;;5062572;28;20095;-63
2021/06/14 12:21:30;;;;;;;8.57;2.88;;;;;;;;;;5069000;28;20051;-63
2021/06/14 12:23:56;;;;;;;12.27;2.75;;;;;;;;;;5069598;28;20529;-63
2021/06/14 12:26:21;;;;;;;6.87;2.40;;;;;;;;;;5064237;28;20075;-63
2021/06/14 12:28:46;;;;;;;11.70;2.97;;;;;;;;;;5068592;28;20271;-63
2021/06/14 12:31:12;;;;;;;8.67;3.50;;;;;;;;;;5069567;28;20051;-63
2021/06/14 12:33:40;;;;;;;9.38;2.67;;;;;;;;;;5067957;28;20324;-63
2021/06/14 12:36:06;;;;;;;7.22;2.80;;;;;;;;;;5068742;28;20025;-63
2021/06/14 12:38:31;;;;;;;5.05;2.63;;;;;;;;;;5069844;28;20110;-63
2021/06/14 12:40:58;;;;;;;11.32;3.00;;;;;;;;;;5051597;28;20013;-63
2021/06/14 12:43:23;;;;;;;4.15;2.00;;;;;;;;;;5064958;28;20108;-63
2021/06/14 12:45:49;;;;;;;3.90;2.05;;;;;;;;;;5069248;28;20178;-63
2021/06/14 12:48:16;;;;;;;6.13;2.15;;;;;;;;;;5069406;28;20492;-63
2021/06/14 12:50:43;;;;;;;6.28;2.90;;;;;;;;;;5069288;28;20082;-64
2021/06/14 12:53:09;;;;;;;8.25;2.55;;;;;;;;;;5066382;28;20025;-63
2021/06/14 12:55:35;;;;;;;5.70;2.83;;;;;;;;;;5068597;28;20020;-63
2021/06/14 12:58:02;;;;;;;9.02;2.70;;;;;;;;;;5067365;28;20021;-63
2021/06/14 13:00:30;;;;;;;9.25;2.35;;;;;;;;;;5064724;28;20118;-64
2021/06/14 13:02:56;;;;;;;10.63;2.95;;;;;;;;;;5068564;28;20012;-63
2021/06/14 13:05:44;;;;;;;8.23;2.38;;;;;;;;;;5064525;28;20021;-63
2021/06/14 13:08:16;;;;;;;10.77;2.75;;;;;;;;;;5057699;28;20040;-64
2021/06/14 13:10:44;;;;;;;10.18;3.40;;;;;;;;;;5055508;28;20393;-64
2021/06/14 13:13:19;;;;;;;8.57;2.65;;;;;;;;;;5069122;28;20048;-64
2021/06/14 13:15:45;;;;;;;8.85;3.53;;;;;;;;;;5067832;28;20734;-63
2021/06/14 13:18:14;;;;;;;12.25;3.75;;;;;;;;;;5068930;28;20094;-64
2021/06/14 13:20:40;;;;;;;11.48;3.65;;;;;;;;;;5074299;28;20016;-64
2021/06/14 13:23:07;;;;;;;11.05;2.95;;;;;;;;;;5070268;28;20444;-64
2021/06/14 13:25:34;;;;;;;9.10;3.20;;;;;;;;;;5072775;28;20020;-65
2021/06/14 13:27:59;;;;;;;8.55;2.42;;;;;;;;;;5048349;28;20028;-65
2021/06/14 13:30:35;;;;;;;10.63;2.63;;;;;;;;;;5072453;28;20038;-65
2021/06/14 13:35:25;;;;;;;9.23;3.87;;;;;;;;;;5072385;28;20078;-65
2021/06/14 13:37:53;;;;;;;7.90;2.92;;;;;;;;;;5079424;28;20016;-65
2021/06/14 13:40:20;;;;;;;7.10;2.33;;;;;;;;;;5072315;28;20028;-64
2021/06/14 13:42:49;;;;;;;12.02;3.20;;;;;;;;;;5072552;28;20092;-65
2021/06/14 13:45:16;;;;;;;8.43;2.72;;;;;;;;;;5071995;28;20025;-65
2021/06/14 13:47:41;;;;;;;13.02;3.55;;;;;;;;;;5080871;28;20035;-66
2021/06/14 13:50:08;;;;;;;5.95;2.60;;;;;;;;;;5067534;28;20021;-65
2021/06/14 13:52:33;;;;;;;16.55;3.03;;;;;;;;;;5072356;28;20028;-66
2021/06/14 13:54:59;;;;;;;10.40;2.90;;;;;;;;;;5071998;28;20028;-66
2021/06/14 13:57:25;;;;;;;8.88;2.35;;;;;;;;;;5065070;28;20020;-66
2021/06/14 13:59:50;;;;;;;5.97;2.67;;;;;;;;;;5072128;28;20622;-66
2021/06/14 14:02:22;;;;;;;5.50;2.43;;;;;;;;;;5071937;28;20032;-65
2021/06/14 14:04:48;;;;;;;10.52;2.80;;;;;;;;;;5068101;28;20267;-66
2021/06/14 14:07:13;;;;;;;8.93;2.60;;;;;;;;;;5065294;28;20095;-65
2021/06/14 14:09:38;;;;;;;8.75;2.78;;;;;;;;;;5071171;28;20510;-67
2021/06/14 14:12:04;;;;;;;9.30;2.60;;;;;;;;;;5071883;28;20057;-66
2021/06/14 14:14:29;;;;;;;6.75;2.28;;;;;;;;;;5070862;28;20360;-66
2021/06/14 14:16:55;;;;;;;10.10;2.92;;;;;;;;;;5071211;28;20039;-66
2021/06/14 14:19:21;;;;;;;8.93;2.80;;;;;;;;;;5070228;28;20017;-66
2021/06/14 14:21:47;;;;;;;7.07;2.25;;;;;;;;;;5071380;28;20263;-66
2021/06/14 14:24:13;;;;;;;5.63;2.63;;;;;;;;;;5071262;28;20019;-64
2021/06/14 14:26:40;;;;;;;8.93;2.42;;;;;;;;;;5071073;28;20028;-63
2021/06/14 14:29:07;;;;;;;6.32;3.20;;;;;;;;;;5071410;28;20111;-66
2021/06/14 14:31:39;;;;;;;8.32;2.20;;;;;;;;;;5066995;28;20028;-65
2021/06/14 14:34:04;;;;;;;10.55;2.70;;;;;;;;;;5070150;28;20017;-66
2021/06/14 14:36:33;;;;;;;7.43;2.22;;;;;;;;;;5070660;28;20031;-67
2021/06/14 14:39:13;;;;;;;4.75;2.10;;;;;;;;;;5070596;28;20437;-66
2021/06/14 14:41:38;;;;;;;6.57;2.58;;;;;;;;;;5070419;28;20051;-66
2021/06/14 14:44:03;;;;;;;5.13;2.37;;;;;;;;;;5071017;28;20482;-67
2021/06/14 14:46:29;;;;;;;6.53;2.13;;;;;;;;;;5070912;28;20752;-65